Zieglerville, Pennsylvania
Current Conditions -  °F | °C
As of 12:54 PM on Thursday 27 Nov 2014 (Local Time) from KPTW Reporting Station
Overcast Overcast  
Wind Chill: 29°   Ceiling: 2500
Heat Index: 36°   Visibility: 10mi
Dew Point: 27°   Wind: 9mph
Humidity: 70%   Direction: 320°NW
Pressure: 30.02"   Gusts: NA
Location:  40.28°N, 75.48°W
Report Text: KPTW 271754Z AUTO 32008KT 10SM BKN025 OVC060 02/M03 A3002 RMK AO2 SLP165 T00221028 10022 20006 58006
Loading
Personal Weather Stations






























Interactive Weather Map New forecast layout! Learn more

10-Day Weather Forecast

Advertisements
Track Severe Weather on mobile